sensor_id;sensor_type;location;lat;lon;timestamp;P1;durP1;ratioP1;P2;durP2;ratioP2
17214;SDS011;8723;51.502;6.918;2022-12-10T00:01:08;63.22;;;51.80;;
17214;SDS011;8723;51.502;6.918;2022-12-10T00:03:37;64.72;;;51.90;;
17214;SDS011;8723;51.502;6.918;2022-12-10T00:06:05;65.53;;;52.33;;
17214;SDS011;8723;51.502;6.918;2022-12-10T00:08:32;62.60;;;50.22;;
17214;SDS011;8723;51.502;6.918;2022-12-10T00:11:01;64.88;;;52.97;;
17214;SDS011;8723;51.502;6.918;2022-12-10T00:13:29;75.30;;;59.83;;
17214;SDS011;8723;51.502;6.918;2022-12-10T00:15:58;77.60;;;60.10;;
17214;SDS011;8723;51.502;6.918;2022-12-10T00:18:25;70.57;;;55.00;;
17214;SDS011;8723;51.502;6.918;2022-12-10T00:20:54;64.00;;;51.75;;
17214;SDS011;8723;51.502;6.918;2022-12-10T00:23:21;67.53;;;54.08;;
17214;SDS011;8723;51.502;6.918;2022-12-10T00:25:48;69.82;;;55.33;;
17214;SDS011;8723;51.502;6.918;2022-12-10T00:28:15;69.32;;;54.40;;
17214;SDS011;8723;51.502;6.918;2022-12-10T00:30:42;72.55;;;55.88;;
17214;SDS011;8723;51.502;6.918;2022-12-10T00:33:10;69.28;;;54.40;;
17214;SDS011;8723;51.502;6.918;2022-12-10T00:35:37;67.85;;;55.00;;
17214;SDS011;8723;51.502;6.918;2022-12-10T00:38:05;64.75;;;51.75;;
17214;SDS011;8723;51.502;6.918;2022-12-10T00:40:32;62.53;;;50.85;;
17214;SDS011;8723;51.502;6.918;2022-12-10T00:42:59;65.15;;;51.80;;
17214;SDS011;8723;51.502;6.918;2022-12-10T00:45:26;66.22;;;51.60;;
17214;SDS011;8723;51.502;6.918;2022-12-10T00:47:53;65.38;;;52.00;;
17214;SDS011;8723;51.502;6.918;2022-12-10T00:50:21;64.07;;;51.38;;
17214;SDS011;8723;51.502;6.918;2022-12-10T00:52:48;66.72;;;53.53;;
17214;SDS011;8723;51.502;6.918;2022-12-10T00:55:16;64.72;;;50.92;;
17214;SDS011;8723;51.502;6.918;2022-12-10T00:57:43;67.53;;;54.17;;
17214;SDS011;8723;51.502;6.918;2022-12-10T01:00:11;69.07;;;54.28;;
17214;SDS011;8723;51.502;6.918;2022-12-10T01:02:39;71.35;;;54.25;;
17214;SDS011;8723;51.502;6.918;2022-12-10T01:05:06;68.03;;;54.47;;
17214;SDS011;8723;51.502;6.918;2022-12-10T01:07:33;70.60;;;53.90;;
17214;SDS011;8723;51.502;6.918;2022-12-10T01:10:01;62.58;;;50.42;;
17214;SDS011;8723;51.502;6.918;2022-12-10T01:12:29;65.90;;;52.75;;
17214;SDS011;8723;51.502;6.918;2022-12-10T01:14:56;70.85;;;53.35;;
17214;SDS011;8723;51.502;6.918;2022-12-10T01:17:23;65.70;;;51.27;;
17214;SDS011;8723;51.502;6.918;2022-12-10T01:19:50;69.40;;;53.08;;
17214;SDS011;8723;51.502;6.918;2022-12-10T01:22:18;66.77;;;53.20;;
17214;SDS011;8723;51.502;6.918;2022-12-10T01:24:45;70.35;;;54.13;;
17214;SDS011;8723;51.502;6.918;2022-12-10T01:27:12;71.20;;;54.70;;
17214;SDS011;8723;51.502;6.918;2022-12-10T01:29:40;64.90;;;51.75;;
17214;SDS011;8723;51.502;6.918;2022-12-10T01:32:07;69.30;;;52.72;;
17214;SDS011;8723;51.502;6.918;2022-12-10T01:34:34;65.65;;;52.90;;
17214;SDS011;8723;51.502;6.918;2022-12-10T01:37:01;68.72;;;54.72;;
17214;SDS011;8723;51.502;6.918;2022-12-10T01:39:28;67.90;;;54.25;;
17214;SDS011;8723;51.502;6.918;2022-12-10T01:41:56;64.95;;;52.17;;
17214;SDS011;8723;51.502;6.918;2022-12-10T01:47:11;66.38;;;52.85;;
17214;SDS011;8723;51.502;6.918;2022-12-10T01:49:39;69.35;;;54.72;;
17214;SDS011;8723;51.502;6.918;2022-12-10T01:52:10;64.82;;;52.55;;
17214;SDS011;8723;51.502;6.918;2022-12-10T01:54:38;67.47;;;53.75;;
17214;SDS011;8723;51.502;6.918;2022-12-10T01:57:06;66.65;;;53.15;;
17214;SDS011;8723;51.502;6.918;2022-12-10T01:59:34;69.28;;;53.28;;
17214;SDS011;8723;51.502;6.918;2022-12-10T02:02:03;63.87;;;52.07;;
17214;SDS011;8723;51.502;6.918;2022-12-10T02:04:33;67.75;;;53.28;;
17214;SDS011;8723;51.502;6.918;2022-12-10T02:07:03;68.05;;;53.80;;
17214;SDS011;8723;51.502;6.918;2022-12-10T02:09:32;69.13;;;53.58;;
17214;SDS011;8723;51.502;6.918;2022-12-10T02:12:04;62.47;;;50.97;;
17214;SDS011;8723;51.502;6.918;2022-12-10T02:14:35;60.92;;;50.10;;
17214;SDS011;8723;51.502;6.918;2022-12-10T02:17:06;65.07;;;51.83;;
17214;SDS011;8723;51.502;6.918;2022-12-10T02:19:42;69.60;;;53.33;;
17214;SDS011;8723;51.502;6.918;2022-12-10T02:22:11;71.78;;;55.13;;
17214;SDS011;8723;51.502;6.918;2022-12-10T02:24:39;66.88;;;53.85;;
17214;SDS011;8723;51.502;6.918;2022-12-10T02:27:06;68.18;;;53.95;;
17214;SDS011;8723;51.502;6.918;2022-12-10T02:29:38;68.57;;;52.75;;
17214;SDS011;8723;51.502;6.918;2022-12-10T02:32:06;66.22;;;53.10;;
17214;SDS011;8723;51.502;6.918;2022-12-10T02:34:35;68.63;;;54.25;;
17214;SDS011;8723;51.502;6.918;2022-12-10T02:37:04;67.20;;;53.63;;
17214;SDS011;8723;51.502;6.918;2022-12-10T02:39:34;68.40;;;54.58;;
17214;SDS011;8723;51.502;6.918;2022-12-10T02:42:03;65.13;;;52.28;;
17214;SDS011;8723;51.502;6.918;2022-12-10T02:44:31;66.18;;;52.97;;
17214;SDS011;8723;51.502;6.918;2022-12-10T02:46:59;70.05;;;55.28;;
17214;SDS011;8723;51.502;6.918;2022-12-10T02:49:27;68.65;;;54.22;;
17214;SDS011;8723;51.502;6.918;2022-12-10T02:51:55;67.88;;;54.13;;
17214;SDS011;8723;51.502;6.918;2022-12-10T02:54:39;69.63;;;54.47;;
17214;SDS011;8723;51.502;6.918;2022-12-10T02:57:15;67.70;;;54.40;;
17214;SDS011;8723;51.502;6.918;2022-12-10T02:59:52;66.85;;;51.88;;
17214;SDS011;8723;51.502;6.918;2022-12-10T03:02:25;70.30;;;54.40;;
17214;SDS011;8723;51.502;6.918;2022-12-10T03:04:56;73.47;;;55.58;;
17214;SDS011;8723;51.502;6.918;2022-12-10T03:07:25;65.10;;;51.67;;
17214;SDS011;8723;51.502;6.918;2022-12-10T03:09:55;64.97;;;51.35;;
17214;SDS011;8723;51.502;6.918;2022-12-10T03:12:25;67.20;;;53.35;;
17214;SDS011;8723;51.502;6.918;2022-12-10T03:14:54;67.30;;;54.78;;
17214;SDS011;8723;51.502;6.918;2022-12-10T03:17:24;72.35;;;55.95;;
17214;SDS011;8723;51.502;6.918;2022-12-10T03:19:52;72.50;;;55.95;;
17214;SDS011;8723;51.502;6.918;2022-12-10T03:22:20;72.57;;;56.88;;
17214;SDS011;8723;51.502;6.918;2022-12-10T03:24:47;74.97;;;58.00;;
17214;SDS011;8723;51.502;6.918;2022-12-10T03:27:14;70.65;;;56.50;;
17214;SDS011;8723;51.502;6.918;2022-12-10T03:29:43;72.70;;;56.53;;
17214;SDS011;8723;51.502;6.918;2022-12-10T03:32:12;69.05;;;55.55;;
17214;SDS011;8723;51.502;6.918;2022-12-10T03:34:41;70.30;;;55.28;;
17214;SDS011;8723;51.502;6.918;2022-12-10T03:37:09;68.93;;;54.73;;
17214;SDS011;8723;51.502;6.918;2022-12-10T03:39:36;69.25;;;53.95;;
17214;SDS011;8723;51.502;6.918;2022-12-10T03:42:04;72.70;;;55.63;;
17214;SDS011;8723;51.502;6.918;2022-12-10T03:44:32;75.83;;;57.50;;
17214;SDS011;8723;51.502;6.918;2022-12-10T03:47:00;72.07;;;55.95;;
17214;SDS011;8723;51.502;6.918;2022-12-10T03:49:27;73.45;;;56.75;;
17214;SDS011;8723;51.502;6.918;2022-12-10T03:51:56;73.03;;;56.15;;
17214;SDS011;8723;51.502;6.918;2022-12-10T03:54:23;69.37;;;54.90;;
17214;SDS011;8723;51.502;6.918;2022-12-10T03:56:50;70.40;;;55.22;;
17214;SDS011;8723;51.502;6.918;2022-12-10T03:59:17;67.03;;;54.40;;
17214;SDS011;8723;51.502;6.918;2022-12-10T04:01:44;73.75;;;56.58;;
17214;SDS011;8723;51.502;6.918;2022-12-10T04:04:11;73.32;;;55.95;;
17214;SDS011;8723;51.502;6.918;2022-12-10T04:06:39;71.90;;;56.10;;
17214;SDS011;8723;51.502;6.918;2022-12-10T04:09:09;65.10;;;52.83;;
17214;SDS011;8723;51.502;6.918;2022-12-10T04:11:36;69.67;;;55.37;;
17214;SDS011;8723;51.502;6.918;2022-12-10T04:14:03;70.10;;;55.33;;
17214;SDS011;8723;51.502;6.918;2022-12-10T04:17:02;68.13;;;55.05;;
17214;SDS011;8723;51.502;6.918;2022-12-10T04:19:29;70.40;;;54.20;;
17214;SDS011;8723;51.502;6.918;2022-12-10T04:21:56;66.60;;;52.78;;
17214;SDS011;8723;51.502;6.918;2022-12-10T04:24:43;68.00;;;53.60;;
17214;SDS011;8723;51.502;6.918;2022-12-10T04:27:28;67.05;;;53.67;;
17214;SDS011;8723;51.502;6.918;2022-12-10T04:29:56;69.50;;;53.55;;
17214;SDS011;8723;51.502;6.918;2022-12-10T04:32:24;69.50;;;54.75;;
17214;SDS011;8723;51.502;6.918;2022-12-10T04:34:51;66.83;;;53.23;;
17214;SDS011;8723;51.502;6.918;2022-12-10T04:37:18;67.05;;;52.75;;
17214;SDS011;8723;51.502;6.918;2022-12-10T04:39:47;69.78;;;55.10;;
17214;SDS011;8723;51.502;6.918;2022-12-10T04:42:15;68.75;;;53.80;;
17214;SDS011;8723;51.502;6.918;2022-12-10T04:44:43;67.72;;;53.70;;
17214;SDS011;8723;51.502;6.918;2022-12-10T04:47:10;69.35;;;54.03;;
17214;SDS011;8723;51.502;6.918;2022-12-10T04:49:37;65.13;;;51.85;;
17214;SDS011;8723;51.502;6.918;2022-12-10T04:52:05;68.60;;;53.05;;
17214;SDS011;8723;51.502;6.918;2022-12-10T04:54:33;68.15;;;53.72;;
17214;SDS011;8723;51.502;6.918;2022-12-10T04:57:01;69.28;;;54.42;;
17214;SDS011;8723;51.502;6.918;2022-12-10T04:59:28;65.05;;;51.10;;
17214;SDS011;8723;51.502;6.918;2022-12-10T05:01:56;68.72;;;53.33;;
17214;SDS011;8723;51.502;6.918;2022-12-10T05:04:23;68.68;;;52.95;;
17214;SDS011;8723;51.502;6.918;2022-12-10T05:06:50;70.78;;;53.85;;
17214;SDS011;8723;51.502;6.918;2022-12-10T05:09:17;68.05;;;53.63;;
17214;SDS011;8723;51.502;6.918;2022-12-10T05:11:44;64.85;;;52.58;;
17214;SDS011;8723;51.502;6.918;2022-12-10T05:14:13;65.47;;;51.90;;
17214;SDS011;8723;51.502;6.918;2022-12-10T05:16:40;67.20;;;52.47;;
17214;SDS011;8723;51.502;6.918;2022-12-10T05:19:08;68.10;;;53.30;;
17214;SDS011;8723;51.502;6.918;2022-12-10T05:21:35;73.05;;;54.70;;
17214;SDS011;8723;51.502;6.918;2022-12-10T05:24:20;71.60;;;55.33;;
17214;SDS011;8723;51.502;6.918;2022-12-10T05:26:47;70.80;;;56.30;;
17214;SDS011;8723;51.502;6.918;2022-12-10T05:29:17;67.30;;;54.10;;
17214;SDS011;8723;51.502;6.918;2022-12-10T05:31:45;68.77;;;52.53;;
17214;SDS011;8723;51.502;6.918;2022-12-10T05:34:12;73.50;;;58.10;;
17214;SDS011;8723;51.502;6.918;2022-12-10T05:36:40;69.75;;;57.30;;
17214;SDS011;8723;51.502;6.918;2022-12-10T05:39:07;73.57;;;56.90;;
17214;SDS011;8723;51.502;6.918;2022-12-10T05:41:35;67.65;;;53.58;;
17214;SDS011;8723;51.502;6.918;2022-12-10T05:44:03;69.40;;;54.63;;
17214;SDS011;8723;51.502;6.918;2022-12-10T05:46:32;66.65;;;53.92;;
17214;SDS011;8723;51.502;6.918;2022-12-10T05:48:59;71.13;;;55.35;;
17214;SDS011;8723;51.502;6.918;2022-12-10T05:51:28;69.80;;;54.10;;
17214;SDS011;8723;51.502;6.918;2022-12-10T05:53:56;66.72;;;53.42;;
17214;SDS011;8723;51.502;6.918;2022-12-10T05:56:24;66.20;;;53.13;;
17214;SDS011;8723;51.502;6.918;2022-12-10T05:58:52;65.13;;;51.88;;
17214;SDS011;8723;51.502;6.918;2022-12-10T06:01:20;66.45;;;51.10;;
17214;SDS011;8723;51.502;6.918;2022-12-10T06:03:49;63.40;;;47.80;;
17214;SDS011;8723;51.502;6.918;2022-12-10T06:06:20;66.32;;;50.17;;
17214;SDS011;8723;51.502;6.918;2022-12-10T06:08:47;66.60;;;50.53;;
17214;SDS011;8723;51.502;6.918;2022-12-10T06:11:15;64.15;;;49.67;;
17214;SDS011;8723;51.502;6.918;2022-12-10T06:13:42;57.80;;;43.92;;
17214;SDS011;8723;51.502;6.918;2022-12-10T06:16:09;67.20;;;49.47;;
17214;SDS011;8723;51.502;6.918;2022-12-10T06:18:37;65.95;;;49.00;;
17214;SDS011;8723;51.502;6.918;2022-12-10T06:21:06;62.63;;;47.83;;
17214;SDS011;8723;51.502;6.918;2022-12-10T06:23:36;64.68;;;48.53;;
17214;SDS011;8723;51.502;6.918;2022-12-10T06:26:04;66.10;;;50.17;;
17214;SDS011;8723;51.502;6.918;2022-12-10T06:28:31;71.13;;;52.22;;
17214;SDS011;8723;51.502;6.918;2022-12-10T06:30:58;71.75;;;52.75;;
17214;SDS011;8723;51.502;6.918;2022-12-10T06:33:25;65.90;;;49.85;;
17214;SDS011;8723;51.502;6.918;2022-12-10T06:35:52;72.72;;;52.65;;
17214;SDS011;8723;51.502;6.918;2022-12-10T06:38:21;78.80;;;55.33;;
17214;SDS011;8723;51.502;6.918;2022-12-10T06:40:48;80.70;;;55.45;;
17214;SDS011;8723;51.502;6.918;2022-12-10T06:43:16;75.70;;;54.20;;
17214;SDS011;8723;51.502;6.918;2022-12-10T06:45:43;74.50;;;52.78;;
17214;SDS011;8723;51.502;6.918;2022-12-10T06:48:10;72.53;;;51.47;;
17214;SDS011;8723;51.502;6.918;2022-12-10T06:50:37;86.03;;;57.90;;
17214;SDS011;8723;51.502;6.918;2022-12-10T06:53:04;82.40;;;55.95;;
17214;SDS011;8723;51.502;6.918;2022-12-10T06:55:33;87.28;;;58.42;;
17214;SDS011;8723;51.502;6.918;2022-12-10T06:58:00;82.68;;;55.72;;
17214;SDS011;8723;51.502;6.918;2022-12-10T07:00:27;85.43;;;58.33;;
17214;SDS011;8723;51.502;6.918;2022-12-10T07:02:54;77.53;;;53.60;;
17214;SDS011;8723;51.502;6.918;2022-12-10T07:05:21;80.65;;;56.42;;
17214;SDS011;8723;51.502;6.918;2022-12-10T07:07:48;82.75;;;56.83;;
17214;SDS011;8723;51.502;6.918;2022-12-10T07:10:15;78.30;;;54.22;;
17214;SDS011;8723;51.502;6.918;2022-12-10T07:12:44;84.70;;;55.78;;
17214;SDS011;8723;51.502;6.918;2022-12-10T07:15:11;79.40;;;54.97;;
17214;SDS011;8723;51.502;6.918;2022-12-10T07:17:38;84.10;;;55.05;;
17214;SDS011;8723;51.502;6.918;2022-12-10T07:20:06;74.43;;;51.13;;
17214;SDS011;8723;51.502;6.918;2022-12-10T07:22:33;84.90;;;55.83;;
17214;SDS011;8723;51.502;6.918;2022-12-10T07:25:00;82.15;;;55.47;;
17214;SDS011;8723;51.502;6.918;2022-12-10T07:27:28;89.72;;;59.80;;
17214;SDS011;8723;51.502;6.918;2022-12-10T07:29:57;93.47;;;60.70;;
17214;SDS011;8723;51.502;6.918;2022-12-10T07:32:26;102.38;;;65.43;;
17214;SDS011;8723;51.502;6.918;2022-12-10T07:34:53;114.47;;;69.67;;
17214;SDS011;8723;51.502;6.918;2022-12-10T07:37:20;105.82;;;67.07;;
17214;SDS011;8723;51.502;6.918;2022-12-10T07:39:47;114.47;;;70.77;;
17214;SDS011;8723;51.502;6.918;2022-12-10T07:42:14;119.53;;;72.25;;
17214;SDS011;8723;51.502;6.918;2022-12-10T07:44:41;109.95;;;69.60;;
17214;SDS011;8723;51.502;6.918;2022-12-10T07:47:10;108.70;;;69.03;;
17214;SDS011;8723;51.502;6.918;2022-12-10T07:49:37;117.82;;;77.00;;
17214;SDS011;8723;51.502;6.918;2022-12-10T07:52:04;108.83;;;71.23;;
17214;SDS011;8723;51.502;6.918;2022-12-10T07:54:31;106.40;;;70.80;;
17214;SDS011;8723;51.502;6.918;2022-12-10T07:56:58;98.40;;;68.47;;
17214;SDS011;8723;51.502;6.918;2022-12-10T07:59:25;99.18;;;67.93;;
17214;SDS011;8723;51.502;6.918;2022-12-10T08:01:52;101.60;;;68.65;;
17214;SDS011;8723;51.502;6.918;2022-12-10T08:04:21;105.43;;;71.10;;
17214;SDS011;8723;51.502;6.918;2022-12-10T08:06:48;96.93;;;68.50;;
17214;SDS011;8723;51.502;6.918;2022-12-10T08:09:15;100.85;;;69.90;;
17214;SDS011;8723;51.502;6.918;2022-12-10T08:11:42;100.78;;;67.82;;
17214;SDS011;8723;51.502;6.918;2022-12-10T08:14:09;100.68;;;67.03;;
17214;SDS011;8723;51.502;6.918;2022-12-10T08:16:37;105.97;;;70.90;;
17214;SDS011;8723;51.502;6.918;2022-12-10T08:19:04;97.93;;;67.20;;
17214;SDS011;8723;51.502;6.918;2022-12-10T08:21:32;103.00;;;71.43;;
17214;SDS011;8723;51.502;6.918;2022-12-10T08:24:00;100.80;;;69.60;;
17214;SDS011;8723;51.502;6.918;2022-12-10T08:26:27;100.55;;;69.50;;
17214;SDS011;8723;51.502;6.918;2022-12-10T08:28:55;99.50;;;68.85;;
17214;SDS011;8723;51.502;6.918;2022-12-10T08:31:23;92.63;;;64.13;;
17214;SDS011;8723;51.502;6.918;2022-12-10T08:33:50;96.53;;;65.95;;
17214;SDS011;8723;51.502;6.918;2022-12-10T08:36:17;104.25;;;70.20;;
17214;SDS011;8723;51.502;6.918;2022-12-10T08:38:46;93.18;;;64.60;;
17214;SDS011;8723;51.502;6.918;2022-12-10T08:41:14;100.88;;;67.75;;
17214;SDS011;8723;51.502;6.918;2022-12-10T08:43:41;96.35;;;65.93;;
17214;SDS011;8723;51.502;6.918;2022-12-10T08:46:09;99.78;;;69.53;;
17214;SDS011;8723;51.502;6.918;2022-12-10T08:48:37;102.60;;;68.43;;
17214;SDS011;8723;51.502;6.918;2022-12-10T08:51:05;105.18;;;70.97;;
17214;SDS011;8723;51.502;6.918;2022-12-10T08:53:33;100.90;;;69.05;;
17214;SDS011;8723;51.502;6.918;2022-12-10T08:56:02;104.00;;;71.20;;
17214;SDS011;8723;51.502;6.918;2022-12-10T08:58:29;98.00;;;68.57;;
17214;SDS011;8723;51.502;6.918;2022-12-10T09:00:56;94.75;;;66.80;;
17214;SDS011;8723;51.502;6.918;2022-12-10T09:03:24;99.15;;;69.75;;
17214;SDS011;8723;51.502;6.918;2022-12-10T09:05:51;101.35;;;69.10;;
17214;SDS011;8723;51.502;6.918;2022-12-10T09:08:18;106.40;;;73.07;;
17214;SDS011;8723;51.502;6.918;2022-12-10T09:10:45;94.05;;;65.40;;
17214;SDS011;8723;51.502;6.918;2022-12-10T09:13:13;95.95;;;66.60;;
17214;SDS011;8723;51.502;6.918;2022-12-10T09:15:41;93.65;;;67.57;;
17214;SDS011;8723;51.502;6.918;2022-12-10T09:18:08;89.75;;;65.75;;
17214;SDS011;8723;51.502;6.918;2022-12-10T09:20:36;92.22;;;66.50;;
17214;SDS011;8723;51.502;6.918;2022-12-10T09:23:03;83.22;;;59.80;;
17214;SDS011;8723;51.502;6.918;2022-12-10T09:25:30;88.30;;;61.97;;
17214;SDS011;8723;51.502;6.918;2022-12-10T09:27:57;75.05;;;55.28;;
17214;SDS011;8723;51.502;6.918;2022-12-10T09:30:26;84.68;;;61.92;;
17214;SDS011;8723;51.502;6.918;2022-12-10T09:32:53;88.22;;;64.45;;
17214;SDS011;8723;51.502;6.918;2022-12-10T09:35:20;84.35;;;60.15;;
17214;SDS011;8723;51.502;6.918;2022-12-10T09:37:47;83.93;;;61.65;;
17214;SDS011;8723;51.502;6.918;2022-12-10T09:40:15;85.70;;;62.42;;
17214;SDS011;8723;51.502;6.918;2022-12-10T09:42:45;87.53;;;62.95;;
17214;SDS011;8723;51.502;6.918;2022-12-10T09:45:17;72.88;;;54.08;;
17214;SDS011;8723;51.502;6.918;2022-12-10T09:47:48;71.55;;;54.58;;
17214;SDS011;8723;51.502;6.918;2022-12-10T09:50:20;70.47;;;51.88;;
17214;SDS011;8723;51.502;6.918;2022-12-10T09:52:49;68.80;;;51.55;;
17214;SDS011;8723;51.502;6.918;2022-12-10T09:55:19;76.53;;;57.00;;
17214;SDS011;8723;51.502;6.918;2022-12-10T09:57:47;75.40;;;55.10;;
17214;SDS011;8723;51.502;6.918;2022-12-10T10:00:17;74.25;;;53.85;;
17214;SDS011;8723;51.502;6.918;2022-12-10T10:02:44;73.68;;;53.67;;
17214;SDS011;8723;51.502;6.918;2022-12-10T10:05:16;77.97;;;56.60;;
17214;SDS011;8723;51.502;6.918;2022-12-10T10:07:45;79.68;;;57.33;;
17214;SDS011;8723;51.502;6.918;2022-12-10T10:10:18;69.07;;;50.90;;
17214;SDS011;8723;51.502;6.918;2022-12-10T10:12:46;79.65;;;58.53;;
17214;SDS011;8723;51.502;6.918;2022-12-10T10:15:14;76.15;;;56.95;;
17214;SDS011;8723;51.502;6.918;2022-12-10T10:17:42;76.97;;;57.00;;
17214;SDS011;8723;51.502;6.918;2022-12-10T10:20:11;67.30;;;50.95;;
17214;SDS011;8723;51.502;6.918;2022-12-10T10:22:40;75.93;;;56.30;;
17214;SDS011;8723;51.502;6.918;2022-12-10T10:25:08;70.70;;;52.83;;
17214;SDS011;8723;51.502;6.918;2022-12-10T10:27:40;76.82;;;57.13;;
17214;SDS011;8723;51.502;6.918;2022-12-10T10:30:12;76.87;;;55.93;;
17214;SDS011;8723;51.502;6.918;2022-12-10T10:32:45;74.10;;;54.70;;
17214;SDS011;8723;51.502;6.918;2022-12-10T10:35:25;81.60;;;57.90;;
17214;SDS011;8723;51.502;6.918;2022-12-10T10:37:58;78.28;;;57.45;;
17214;SDS011;8723;51.502;6.918;2022-12-10T10:40:27;74.05;;;53.20;;
17214;SDS011;8723;51.502;6.918;2022-12-10T10:42:55;82.13;;;61.13;;
17214;SDS011;8723;51.502;6.918;2022-12-10T10:45:34;73.00;;;52.75;;
17214;SDS011;8723;51.502;6.918;2022-12-10T10:48:06;80.15;;;58.47;;
17214;SDS011;8723;51.502;6.918;2022-12-10T10:50:36;73.20;;;53.08;;
17214;SDS011;8723;51.502;6.918;2022-12-10T10:55:47;76.15;;;55.42;;
17214;SDS011;8723;51.502;6.918;2022-12-10T10:58:16;82.15;;;57.13;;
17214;SDS011;8723;51.502;6.918;2022-12-10T11:00:52;83.47;;;58.95;;
17214;SDS011;8723;51.502;6.918;2022-12-10T11:03:20;76.82;;;54.75;;
17214;SDS011;8723;51.502;6.918;2022-12-10T11:05:47;78.35;;;56.88;;
17214;SDS011;8723;51.502;6.918;2022-12-10T11:08:16;79.22;;;57.65;;
17214;SDS011;8723;51.502;6.918;2022-12-10T11:10:48;84.80;;;59.67;;
17214;SDS011;8723;51.502;6.918;2022-12-10T11:13:19;83.63;;;59.33;;
17214;SDS011;8723;51.502;6.918;2022-12-10T11:15:47;82.53;;;59.20;;
17214;SDS011;8723;51.502;6.918;2022-12-10T11:18:31;80.97;;;57.95;;
17214;SDS011;8723;51.502;6.918;2022-12-10T11:21:00;76.70;;;55.92;;
17214;SDS011;8723;51.502;6.918;2022-12-10T11:23:28;80.88;;;58.05;;
17214;SDS011;8723;51.502;6.918;2022-12-10T11:25:58;79.65;;;56.80;;
17214;SDS011;8723;51.502;6.918;2022-12-10T11:28:31;77.47;;;57.53;;
17214;SDS011;8723;51.502;6.918;2022-12-10T11:31:06;83.93;;;59.15;;
17214;SDS011;8723;51.502;6.918;2022-12-10T11:33:41;70.38;;;51.63;;
17214;SDS011;8723;51.502;6.918;2022-12-10T11:36:17;63.50;;;49.15;;
17214;SDS011;8723;51.502;6.918;2022-12-10T11:38:47;59.15;;;46.58;;
17214;SDS011;8723;51.502;6.918;2022-12-10T11:41:18;56.53;;;45.35;;
17214;SDS011;8723;51.502;6.918;2022-12-10T11:44:01;61.47;;;46.50;;
17214;SDS011;8723;51.502;6.918;2022-12-10T11:46:37;65.22;;;49.92;;
17214;SDS011;8723;51.502;6.918;2022-12-10T11:49:10;62.70;;;49.30;;
17214;SDS011;8723;51.502;6.918;2022-12-10T11:51:40;62.83;;;48.85;;
17214;SDS011;8723;51.502;6.918;2022-12-10T11:54:15;62.83;;;48.42;;
17214;SDS011;8723;51.502;6.918;2022-12-10T11:56:46;58.83;;;47.63;;
17214;SDS011;8723;51.502;6.918;2022-12-10T11:59:16;56.78;;;46.30;;
17214;SDS011;8723;51.502;6.918;2022-12-10T12:01:54;62.00;;;49.97;;
17214;SDS011;8723;51.502;6.918;2022-12-10T12:04:28;57.88;;;46.83;;
17214;SDS011;8723;51.502;6.918;2022-12-10T12:07:04;53.17;;;44.10;;
17214;SDS011;8723;51.502;6.918;2022-12-10T12:09:36;52.60;;;42.78;;
17214;SDS011;8723;51.502;6.918;2022-12-10T12:12:10;49.20;;;40.92;;
17214;SDS011;8723;51.502;6.918;2022-12-10T12:14:43;49.45;;;42.20;;
17214;SDS011;8723;51.502;6.918;2022-12-10T12:17:11;48.05;;;39.90;;
17214;SDS011;8723;51.502;6.918;2022-12-10T12:19:42;46.33;;;39.42;;
17214;SDS011;8723;51.502;6.918;2022-12-10T12:22:13;44.50;;;38.25;;
17214;SDS011;8723;51.502;6.918;2022-12-10T12:24:41;45.60;;;39.27;;
17214;SDS011;8723;51.502;6.918;2022-12-10T12:27:14;44.92;;;38.08;;
17214;SDS011;8723;51.502;6.918;2022-12-10T12:29:44;51.88;;;41.05;;
17214;SDS011;8723;51.502;6.918;2022-12-10T12:32:15;47.60;;;40.08;;
17214;SDS011;8723;51.502;6.918;2022-12-10T12:34:44;47.95;;;42.17;;
17214;SDS011;8723;51.502;6.918;2022-12-10T12:37:14;48.22;;;40.95;;
17214;SDS011;8723;51.502;6.918;2022-12-10T12:39:43;47.50;;;40.17;;
17214;SDS011;8723;51.502;6.918;2022-12-10T12:42:16;45.17;;;38.78;;
17214;SDS011;8723;51.502;6.918;2022-12-10T12:44:47;48.47;;;40.83;;
17214;SDS011;8723;51.502;6.918;2022-12-10T12:47:21;49.50;;;42.20;;
17214;SDS011;8723;51.502;6.918;2022-12-10T12:49:49;50.45;;;41.10;;
17214;SDS011;8723;51.502;6.918;2022-12-10T12:52:25;51.67;;;42.40;;
17214;SDS011;8723;51.502;6.918;2022-12-10T12:54:55;50.08;;;41.53;;
17214;SDS011;8723;51.502;6.918;2022-12-10T12:57:26;53.88;;;42.72;;
17214;SDS011;8723;51.502;6.918;2022-12-10T12:59:56;50.17;;;43.37;;
17214;SDS011;8723;51.502;6.918;2022-12-10T13:02:32;46.60;;;39.45;;
17214;SDS011;8723;51.502;6.918;2022-12-10T13:05:05;45.47;;;39.10;;
17214;SDS011;8723;51.502;6.918;2022-12-10T13:07:39;48.83;;;41.00;;
17214;SDS011;8723;51.502;6.918;2022-12-10T13:10:17;46.88;;;38.92;;
17214;SDS011;8723;51.502;6.918;2022-12-10T13:12:47;49.57;;;39.93;;
17214;SDS011;8723;51.502;6.918;2022-12-10T13:15:17;48.65;;;39.03;;
17214;SDS011;8723;51.502;6.918;2022-12-10T13:20:30;41.20;;;36.07;;
17214;SDS011;8723;51.502;6.918;2022-12-10T13:22:58;48.65;;;40.65;;
17214;SDS011;8723;51.502;6.918;2022-12-10T13:25:39;49.80;;;40.00;;
17214;SDS011;8723;51.502;6.918;2022-12-10T13:28:21;45.08;;;37.95;;
17214;SDS011;8723;51.502;6.918;2022-12-10T13:33:41;44.55;;;37.72;;
17214;SDS011;8723;51.502;6.918;2022-12-10T13:36:11;44.88;;;38.08;;
17214;SDS011;8723;51.502;6.918;2022-12-10T13:38:41;44.95;;;39.90;;
17214;SDS011;8723;51.502;6.918;2022-12-10T13:41:11;43.83;;;37.53;;
17214;SDS011;8723;51.502;6.918;2022-12-10T13:43:59;45.13;;;37.67;;
17214;SDS011;8723;51.502;6.918;2022-12-10T13:46:56;46.72;;;39.00;;
17214;SDS011;8723;51.502;6.918;2022-12-10T13:49:26;48.07;;;39.87;;
17214;SDS011;8723;51.502;6.918;2022-12-10T13:52:00;51.83;;;42.47;;
17214;SDS011;8723;51.502;6.918;2022-12-10T13:57:21;50.97;;;41.08;;
17214;SDS011;8723;51.502;6.918;2022-12-10T13:59:57;48.95;;;39.67;;
17214;SDS011;8723;51.502;6.918;2022-12-10T14:08:03;57.35;;;45.83;;
17214;SDS011;8723;51.502;6.918;2022-12-10T14:10:33;54.58;;;44.40;;
17214;SDS011;8723;51.502;6.918;2022-12-10T14:13:03;55.25;;;43.63;;
17214;SDS011;8723;51.502;6.918;2022-12-10T14:15:33;58.23;;;47.40;;
17214;SDS011;8723;51.502;6.918;2022-12-10T14:18:02;58.05;;;44.95;;
17214;SDS011;8723;51.502;6.918;2022-12-10T14:20:30;55.58;;;44.08;;
17214;SDS011;8723;51.502;6.918;2022-12-10T14:23:02;56.40;;;45.10;;
17214;SDS011;8723;51.502;6.918;2022-12-10T14:25:45;50.33;;;40.50;;
17214;SDS011;8723;51.502;6.918;2022-12-10T14:28:12;51.97;;;42.10;;
17214;SDS011;8723;51.502;6.918;2022-12-10T14:30:43;47.67;;;39.47;;
17214;SDS011;8723;51.502;6.918;2022-12-10T14:33:10;51.10;;;41.53;;
17214;SDS011;8723;51.502;6.918;2022-12-10T14:35:39;49.58;;;41.30;;
17214;SDS011;8723;51.502;6.918;2022-12-10T14:38:12;52.55;;;42.85;;
17214;SDS011;8723;51.502;6.918;2022-12-10T14:40:43;61.35;;;54.63;;
17214;SDS011;8723;51.502;6.918;2022-12-10T14:43:12;54.35;;;46.30;;
17214;SDS011;8723;51.502;6.918;2022-12-10T14:45:42;52.77;;;44.50;;
17214;SDS011;8723;51.502;6.918;2022-12-10T14:48:12;49.28;;;41.67;;
17214;SDS011;8723;51.502;6.918;2022-12-10T14:50:41;49.42;;;41.55;;
17214;SDS011;8723;51.502;6.918;2022-12-10T14:53:11;49.88;;;42.30;;
17214;SDS011;8723;51.502;6.918;2022-12-10T14:55:40;52.88;;;44.20;;
17214;SDS011;8723;51.502;6.918;2022-12-10T14:58:09;51.08;;;43.88;;
17214;SDS011;8723;51.502;6.918;2022-12-10T15:00:40;53.25;;;44.55;;
17214;SDS011;8723;51.502;6.918;2022-12-10T15:03:08;52.85;;;44.78;;
17214;SDS011;8723;51.502;6.918;2022-12-10T15:05:37;49.17;;;42.33;;